createdAt,value
2022-10-11T00:00:00.279Z,10.1
2022-10-11T00:10:00.301Z,10.1
2022-10-11T00:20:00.265Z,10.1
2022-10-11T00:30:00.270Z,10.0
2022-10-11T00:40:00.346Z,10.0
2022-10-11T00:50:00.275Z,10.0
2022-10-11T01:00:00.327Z,10.0
2022-10-11T01:10:00.226Z,9.9
2022-10-11T01:20:00.237Z,9.9
2022-10-11T01:30:00.276Z,9.8
2022-10-11T01:40:00.263Z,9.8
2022-10-11T01:50:00.372Z,9.8
2022-10-11T02:10:00.254Z,9.8
2022-10-11T02:20:00.295Z,9.8
2022-10-11T02:30:00.264Z,9.8
2022-10-11T02:40:00.464Z,9.8
2022-10-11T02:50:00.261Z,9.8
2022-10-11T03:00:00.233Z,9.9
2022-10-11T03:10:00.338Z,9.9
2022-10-11T03:20:00.262Z,9.9
2022-10-11T03:30:00.317Z,10.0
2022-10-11T03:40:00.274Z,10.0
2022-10-11T03:50:00.282Z,10.0
2022-10-11T04:00:00.231Z,9.9
2022-10-11T04:10:00.243Z,9.8
2022-10-11T04:20:00.299Z,9.8
2022-10-11T04:30:00.298Z,9.8
2022-10-11T04:40:00.262Z,9.7
2022-10-11T04:50:00.269Z,9.7
2022-10-11T05:00:00.270Z,9.7
2022-10-11T05:10:00.285Z,9.7
2022-10-11T05:20:00.276Z,9.7
2022-10-11T05:30:00.335Z,9.8
2022-10-11T05:40:00.250Z,9.8
2022-10-11T05:50:00.254Z,10.0
2022-10-11T06:00:00.254Z,10.0
2022-10-11T06:10:00.256Z,10.2
2022-10-11T06:20:00.274Z,10.3
2022-10-11T06:30:00.321Z,10.4
2022-10-11T06:40:00.266Z,10.6
2022-10-11T06:50:00.266Z,10.8
2022-10-11T07:00:00.267Z,11.0
2022-10-11T07:10:00.262Z,11.5
2022-10-11T07:20:00.230Z,12.0
2022-10-11T07:30:00.263Z,12.8
2022-10-11T07:40:00.326Z,13.2
2022-10-11T07:50:00.468Z,13.9
2022-10-11T08:00:00.307Z,14.4
2022-10-11T08:10:00.281Z,14.7
2022-10-11T08:20:00.287Z,15.0
2022-10-11T08:30:00.305Z,15.2
2022-10-11T08:40:00.286Z,15.4
2022-10-11T08:50:00.323Z,15.5
2022-10-11T09:00:00.263Z,15.6
2022-10-11T09:10:00.239Z,15.8
2022-10-11T09:20:00.274Z,15.8
2022-10-11T09:30:00.253Z,15.9
2022-10-11T09:40:00.610Z,16.0
2022-10-11T09:50:00.254Z,16.0
2022-10-11T10:00:00.359Z,16.3
2022-10-11T10:10:00.276Z,16.6
2022-10-11T10:20:00.270Z,17.0
2022-10-11T10:30:00.301Z,17.2
2022-10-11T10:40:00.264Z,17.4
2022-10-11T10:50:00.268Z,17.5
2022-10-11T11:00:00.297Z,17.8
2022-10-11T11:10:00.318Z,17.9
2022-10-11T11:20:00.266Z,18.0
2022-10-11T11:30:00.259Z,18.2
2022-10-11T11:40:00.240Z,18.4
2022-10-11T11:50:00.294Z,18.5
2022-10-11T12:00:00.294Z,18.7
2022-10-11T12:10:00.333Z,18.7
2022-10-11T12:20:00.302Z,18.8
2022-10-11T12:30:00.275Z,18.8
2022-10-11T12:40:00.265Z,18.7
2022-10-11T12:50:00.271Z,18.6
2022-10-11T13:00:00.456Z,18.5
2022-10-11T13:10:00.288Z,18.4
2022-10-11T13:20:00.287Z,18.4
2022-10-11T13:30:00.357Z,18.3
2022-10-11T13:40:00.255Z,18.5
2022-10-11T13:50:00.267Z,18.5
2022-10-11T14:00:00.305Z,18.5
2022-10-11T14:10:00.259Z,18.5
2022-10-11T14:20:05.001Z,18.4
2022-10-11T14:30:23.778Z,18.3
2022-10-11T14:40:00.309Z,18.3
2022-10-11T14:50:00.232Z,18.3
2022-10-11T15:00:00.240Z,18.2
2022-10-11T15:10:00.260Z,18.0
2022-10-11T15:20:00.700Z,17.8
2022-10-11T15:30:00.244Z,17.5
2022-10-11T15:40:00.317Z,17.2
2022-10-11T15:50:00.359Z,17.0
2022-10-11T16:00:00.318Z,16.8
2022-10-11T16:10:00.259Z,16.7
2022-10-11T16:20:00.297Z,16.3
2022-10-11T16:30:00.266Z,16.2
2022-10-11T16:40:00.273Z,16.0
2022-10-11T16:50:00.263Z,15.9
2022-10-11T17:00:00.309Z,15.8
2022-10-11T17:10:00.266Z,15.6
2022-10-11T17:20:00.272Z,15.5
2022-10-11T17:30:00.270Z,15.4
2022-10-11T17:40:00.268Z,15.3
2022-10-11T17:50:00.250Z,15.1
2022-10-11T18:00:00.290Z,14.9
2022-10-11T18:10:00.309Z,14.8
2022-10-11T18:20:00.265Z,14.6
2022-10-11T18:30:00.295Z,14.6
2022-10-11T18:40:00.248Z,14.5
2022-10-11T18:50:00.240Z,14.5
2022-10-11T19:00:04.064Z,14.5
2022-10-11T19:10:00.305Z,14.4
2022-10-11T19:20:00.340Z,14.4
2022-10-11T19:30:00.278Z,14.4
2022-10-11T19:40:00.296Z,14.3
2022-10-11T19:50:00.283Z,14.2
2022-10-11T20:00:00.278Z,14.2
2022-10-11T20:10:00.257Z,14.2
2022-10-11T20:20:00.228Z,14.1
2022-10-11T20:30:00.393Z,14.1
2022-10-11T20:40:00.263Z,14.0
2022-10-11T20:50:00.301Z,14.0
2022-10-11T21:00:00.314Z,14.0
2022-10-11T21:10:00.307Z,14.0
2022-10-11T21:20:00.258Z,13.9
2022-10-11T21:30:00.778Z,13.9
2022-10-11T21:40:00.342Z,13.8
2022-10-11T21:50:00.313Z,13.8
2022-10-11T22:00:00.341Z,13.8
2022-10-11T22:10:00.312Z,13.7
2022-10-11T22:20:00.279Z,13.7
2022-10-11T22:30:00.269Z,13.6
2022-10-11T22:40:00.295Z,13.6
2022-10-11T22:50:00.320Z,13.6
2022-10-11T23:00:00.531Z,13.4
2022-10-11T23:10:00.250Z,13.4
2022-10-11T23:20:00.447Z,13.3
2022-10-11T23:30:00.255Z,13.3
2022-10-11T23:40:00.279Z,13.2
2022-10-11T23:50:00.309Z,13.2
